sensor_id;sensor_type;location;lat;lon;timestamp;temperature;humidity
18880;DHT22;9572;52.378;13.404;2023-04-25T00:02:23;9.10;99.90
18880;DHT22;9572;52.378;13.404;2023-04-25T00:04:51;9.00;99.90
18880;DHT22;9572;52.378;13.404;2023-04-25T00:07:18;8.90;99.90
18880;DHT22;9572;52.378;13.404;2023-04-25T00:09:45;8.90;99.90
18880;DHT22;9572;52.378;13.404;2023-04-25T00:12:12;8.90;99.90
18880;DHT22;9572;52.378;13.404;2023-04-25T00:14:39;8.80;99.90
18880;DHT22;9572;52.378;13.404;2023-04-25T00:17:06;8.80;99.90
18880;DHT22;9572;52.378;13.404;2023-04-25T00:19:33;8.80;99.90
18880;DHT22;9572;52.378;13.404;2023-04-25T00:22:01;8.70;99.90
18880;DHT22;9572;52.378;13.404;2023-04-25T00:24:28;8.70;99.90
18880;DHT22;9572;52.378;13.404;2023-04-25T00:26:55;8.80;99.90
18880;DHT22;9572;52.378;13.404;2023-04-25T00:29:22;8.70;99.90
18880;DHT22;9572;52.378;13.404;2023-04-25T00:31:49;8.80;99.90
18880;DHT22;9572;52.378;13.404;2023-04-25T00:34:16;8.80;99.90
18880;DHT22;9572;52.378;13.404;2023-04-25T00:36:42;8.80;99.90
18880;DHT22;9572;52.378;13.404;2023-04-25T00:39:11;8.80;99.90
18880;DHT22;9572;52.378;13.404;2023-04-25T00:41:38;8.80;99.90
18880;DHT22;9572;52.378;13.404;2023-04-25T00:44:08;8.80;99.90
18880;DHT22;9572;52.378;13.404;2023-04-25T00:46:36;8.80;99.90
18880;DHT22;9572;52.378;13.404;2023-04-25T00:49:03;8.90;99.90
18880;DHT22;9572;52.378;13.404;2023-04-25T00:51:31;8.90;99.90
18880;DHT22;9572;52.378;13.404;2023-04-25T00:53:59;8.90;99.90
18880;DHT22;9572;52.378;13.404;2023-04-25T00:56:28;8.90;99.90
18880;DHT22;9572;52.378;13.404;2023-04-25T00:58:56;8.90;99.90
18880;DHT22;9572;52.378;13.404;2023-04-25T01:01:23;8.90;99.90
18880;DHT22;9572;52.378;13.404;2023-04-25T01:03:50;9.00;99.90
18880;DHT22;9572;52.378;13.404;2023-04-25T01:06:18;8.90;99.90
18880;DHT22;9572;52.378;13.404;2023-04-25T01:08:45;8.90;99.90
18880;DHT22;9572;52.378;13.404;2023-04-25T01:11:12;8.90;99.90
18880;DHT22;9572;52.378;13.404;2023-04-25T01:13:40;9.00;99.90
18880;DHT22;9572;52.378;13.404;2023-04-25T01:16:07;9.00;99.90
18880;DHT22;9572;52.378;13.404;2023-04-25T01:18:34;9.00;99.90
18880;DHT22;9572;52.378;13.404;2023-04-25T01:21:07;9.00;99.90
18880;DHT22;9572;52.378;13.404;2023-04-25T01:23:35;9.00;99.90
18880;DHT22;9572;52.378;13.404;2023-04-25T01:26:02;9.00;99.90
18880;DHT22;9572;52.378;13.404;2023-04-25T01:28:29;9.00;99.90
18880;DHT22;9572;52.378;13.404;2023-04-25T01:30:57;8.90;99.90
18880;DHT22;9572;52.378;13.404;2023-04-25T01:33:24;8.90;99.90
18880;DHT22;9572;52.378;13.404;2023-04-25T01:35:51;9.00;99.90
18880;DHT22;9572;52.378;13.404;2023-04-25T01:38:19;9.00;99.90
18880;DHT22;9572;52.378;13.404;2023-04-25T01:40:46;9.00;99.90
18880;DHT22;9572;52.378;13.404;2023-04-25T01:43:14;9.00;99.90
18880;DHT22;9572;52.378;13.404;2023-04-25T01:45:41;8.90;99.90
18880;DHT22;9572;52.378;13.404;2023-04-25T01:48:08;9.00;99.90
18880;DHT22;9572;52.378;13.404;2023-04-25T01:50:35;8.90;99.90
18880;DHT22;9572;52.378;13.404;2023-04-25T01:53:02;8.90;99.90
18880;DHT22;9572;52.378;13.404;2023-04-25T01:55:30;8.80;99.90
18880;DHT22;9572;52.378;13.404;2023-04-25T01:57:57;8.80;99.90
18880;DHT22;9572;52.378;13.404;2023-04-25T02:00:25;8.80;99.90
18880;DHT22;9572;52.378;13.404;2023-04-25T02:02:52;8.70;99.90
18880;DHT22;9572;52.378;13.404;2023-04-25T02:05:19;8.70;99.90
18880;DHT22;9572;52.378;13.404;2023-04-25T02:07:47;8.70;99.90
18880;DHT22;9572;52.378;13.404;2023-04-25T02:10:14;8.70;99.90
18880;DHT22;9572;52.378;13.404;2023-04-25T02:12:42;8.70;99.90
18880;DHT22;9572;52.378;13.404;2023-04-25T02:15:10;8.70;99.90
18880;DHT22;9572;52.378;13.404;2023-04-25T02:17:37;8.60;99.90
18880;DHT22;9572;52.378;13.404;2023-04-25T02:20:05;8.60;99.90
18880;DHT22;9572;52.378;13.404;2023-04-25T02:22:32;8.60;99.90
18880;DHT22;9572;52.378;13.404;2023-04-25T02:25:01;8.60;99.90
18880;DHT22;9572;52.378;13.404;2023-04-25T02:27:28;8.60;99.90
18880;DHT22;9572;52.378;13.404;2023-04-25T02:29:56;8.60;99.90
18880;DHT22;9572;52.378;13.404;2023-04-25T02:32:23;8.60;99.90
18880;DHT22;9572;52.378;13.404;2023-04-25T02:34:50;8.60;99.90
18880;DHT22;9572;52.378;13.404;2023-04-25T02:37:16;8.50;99.90
18880;DHT22;9572;52.378;13.404;2023-04-25T02:39:44;8.60;99.90
18880;DHT22;9572;52.378;13.404;2023-04-25T02:42:10;8.60;99.90
18880;DHT22;9572;52.378;13.404;2023-04-25T02:44:37;8.60;99.90
18880;DHT22;9572;52.378;13.404;2023-04-25T02:47:05;8.60;99.90
18880;DHT22;9572;52.378;13.404;2023-04-25T02:49:32;8.60;99.90
18880;DHT22;9572;52.378;13.404;2023-04-25T02:51:59;8.50;99.90
18880;DHT22;9572;52.378;13.404;2023-04-25T02:54:26;8.60;99.90
18880;DHT22;9572;52.378;13.404;2023-04-25T02:56:53;8.50;99.90
18880;DHT22;9572;52.378;13.404;2023-04-25T02:59:20;8.50;99.90
18880;DHT22;9572;52.378;13.404;2023-04-25T03:01:47;8.50;99.90
18880;DHT22;9572;52.378;13.404;2023-04-25T03:04:15;8.50;99.90
18880;DHT22;9572;52.378;13.404;2023-04-25T03:06:42;8.60;99.90
18880;DHT22;9572;52.378;13.404;2023-04-25T03:09:09;8.60;99.90
18880;DHT22;9572;52.378;13.404;2023-04-25T03:11:36;8.60;99.90
18880;DHT22;9572;52.378;13.404;2023-04-25T03:14:03;8.60;99.90
18880;DHT22;9572;52.378;13.404;2023-04-25T03:16:30;8.50;99.90
18880;DHT22;9572;52.378;13.404;2023-04-25T03:18:57;8.50;99.90
18880;DHT22;9572;52.378;13.404;2023-04-25T03:21:25;8.50;99.90
18880;DHT22;9572;52.378;13.404;2023-04-25T03:23:53;8.50;99.90
18880;DHT22;9572;52.378;13.404;2023-04-25T03:26:20;8.60;99.90
18880;DHT22;9572;52.378;13.404;2023-04-25T03:28:47;8.60;99.90
18880;DHT22;9572;52.378;13.404;2023-04-25T03:31:14;8.60;99.90
18880;DHT22;9572;52.378;13.404;2023-04-25T03:33:40;8.60;99.90
18880;DHT22;9572;52.378;13.404;2023-04-25T03:36:08;8.60;99.90
18880;DHT22;9572;52.378;13.404;2023-04-25T03:38:36;8.60;99.90
18880;DHT22;9572;52.378;13.404;2023-04-25T03:41:03;8.50;99.90
18880;DHT22;9572;52.378;13.404;2023-04-25T03:43:30;8.60;99.90
18880;DHT22;9572;52.378;13.404;2023-04-25T03:45:57;8.60;99.90
18880;DHT22;9572;52.378;13.404;2023-04-25T03:48:24;8.60;99.90
18880;DHT22;9572;52.378;13.404;2023-04-25T03:50:51;8.60;99.90
18880;DHT22;9572;52.378;13.404;2023-04-25T03:53:19;8.60;99.90
18880;DHT22;9572;52.378;13.404;2023-04-25T03:55:47;8.60;99.90
18880;DHT22;9572;52.378;13.404;2023-04-25T03:58:14;8.70;99.90
18880;DHT22;9572;52.378;13.404;2023-04-25T04:00:41;8.60;99.90
18880;DHT22;9572;52.378;13.404;2023-04-25T04:03:08;8.60;99.90
18880;DHT22;9572;52.378;13.404;2023-04-25T04:05:36;8.60;99.90
18880;DHT22;9572;52.378;13.404;2023-04-25T04:08:05;8.50;99.90
18880;DHT22;9572;52.378;13.404;2023-04-25T04:10:32;8.60;99.90
18880;DHT22;9572;52.378;13.404;2023-04-25T04:13:01;8.50;99.90
18880;DHT22;9572;52.378;13.404;2023-04-25T04:15:29;8.60;99.90
18880;DHT22;9572;52.378;13.404;2023-04-25T04:17:58;8.60;99.90
18880;DHT22;9572;52.378;13.404;2023-04-25T04:20:28;8.50;99.90
18880;DHT22;9572;52.378;13.404;2023-04-25T04:22:55;8.50;99.90
18880;DHT22;9572;52.378;13.404;2023-04-25T04:25:22;8.50;99.90
18880;DHT22;9572;52.378;13.404;2023-04-25T04:27:50;8.50;99.90
18880;DHT22;9572;52.378;13.404;2023-04-25T04:30:21;8.60;99.90
18880;DHT22;9572;52.378;13.404;2023-04-25T04:32:49;8.50;99.90
18880;DHT22;9572;52.378;13.404;2023-04-25T04:35:16;8.60;99.90
18880;DHT22;9572;52.378;13.404;2023-04-25T04:37:43;8.60;99.90
18880;DHT22;9572;52.378;13.404;2023-04-25T04:40:11;8.70;99.90
18880;DHT22;9572;52.378;13.404;2023-04-25T04:42:41;8.70;99.90
18880;DHT22;9572;52.378;13.404;2023-04-25T04:45:08;8.80;99.90
18880;DHT22;9572;52.378;13.404;2023-04-25T04:47:37;8.80;99.90
18880;DHT22;9572;52.378;13.404;2023-04-25T04:50:05;8.80;99.90
18880;DHT22;9572;52.378;13.404;2023-04-25T04:52:34;8.80;99.90
18880;DHT22;9572;52.378;13.404;2023-04-25T04:55:02;8.70;99.90
18880;DHT22;9572;52.378;13.404;2023-04-25T04:57:29;8.80;99.90
18880;DHT22;9572;52.378;13.404;2023-04-25T04:59:58;8.80;99.90
18880;DHT22;9572;52.378;13.404;2023-04-25T05:02:25;8.80;99.90
18880;DHT22;9572;52.378;13.404;2023-04-25T05:04:55;8.80;99.90
18880;DHT22;9572;52.378;13.404;2023-04-25T05:07:22;8.80;99.90
18880;DHT22;9572;52.378;13.404;2023-04-25T05:09:49;8.80;99.90
18880;DHT22;9572;52.378;13.404;2023-04-25T05:12:16;8.90;99.90
18880;DHT22;9572;52.378;13.404;2023-04-25T05:14:43;9.00;99.90
18880;DHT22;9572;52.378;13.404;2023-04-25T05:17:10;9.00;99.90
18880;DHT22;9572;52.378;13.404;2023-04-25T05:19:36;8.90;99.90
18880;DHT22;9572;52.378;13.404;2023-04-25T05:22:06;8.90;99.90
18880;DHT22;9572;52.378;13.404;2023-04-25T05:24:33;9.00;99.90
18880;DHT22;9572;52.378;13.404;2023-04-25T05:27:00;9.00;99.90
18880;DHT22;9572;52.378;13.404;2023-04-25T05:29:27;9.00;99.90
18880;DHT22;9572;52.378;13.404;2023-04-25T05:31:55;9.00;99.90
18880;DHT22;9572;52.378;13.404;2023-04-25T05:34:21;8.90;99.90
18880;DHT22;9572;52.378;13.404;2023-04-25T05:36:48;8.90;99.90
18880;DHT22;9572;52.378;13.404;2023-04-25T05:39:17;9.00;99.90
18880;DHT22;9572;52.378;13.404;2023-04-25T05:41:44;9.00;99.90
18880;DHT22;9572;52.378;13.404;2023-04-25T05:44:11;9.10;99.90
18880;DHT22;9572;52.378;13.404;2023-04-25T05:46:38;9.10;99.90
18880;DHT22;9572;52.378;13.404;2023-04-25T05:49:05;9.10;99.90
18880;DHT22;9572;52.378;13.404;2023-04-25T05:51:32;9.10;99.90
18880;DHT22;9572;52.378;13.404;2023-04-25T05:53:59;9.20;99.90
18880;DHT22;9572;52.378;13.404;2023-04-25T05:56:27;9.30;99.90
18880;DHT22;9572;52.378;13.404;2023-04-25T05:58:54;9.30;99.90
18880;DHT22;9572;52.378;13.404;2023-04-25T06:01:22;9.30;99.90
18880;DHT22;9572;52.378;13.404;2023-04-25T06:03:49;9.30;99.90
18880;DHT22;9572;52.378;13.404;2023-04-25T06:06:16;9.30;99.90
18880;DHT22;9572;52.378;13.404;2023-04-25T06:08:43;9.40;99.90
18880;DHT22;9572;52.378;13.404;2023-04-25T06:11:10;9.30;99.90
18880;DHT22;9572;52.378;13.404;2023-04-25T06:13:38;9.40;99.90
18880;DHT22;9572;52.378;13.404;2023-04-25T06:16:06;9.40;99.90
18880;DHT22;9572;52.378;13.404;2023-04-25T06:18:33;9.40;99.90
18880;DHT22;9572;52.378;13.404;2023-04-25T06:20:59;9.40;99.90
18880;DHT22;9572;52.378;13.404;2023-04-25T06:23:26;9.30;99.90
18880;DHT22;9572;52.378;13.404;2023-04-25T06:25:53;9.30;99.90
18880;DHT22;9572;52.378;13.404;2023-04-25T06:28:20;9.30;99.90
18880;DHT22;9572;52.378;13.404;2023-04-25T06:30:50;9.30;99.90
18880;DHT22;9572;52.378;13.404;2023-04-25T06:33:17;9.40;99.90
18880;DHT22;9572;52.378;13.404;2023-04-25T06:35:43;9.40;99.90
18880;DHT22;9572;52.378;13.404;2023-04-25T06:38:11;9.50;99.90
18880;DHT22;9572;52.378;13.404;2023-04-25T06:40:38;9.40;99.90
18880;DHT22;9572;52.378;13.404;2023-04-25T06:43:04;9.30;99.90
18880;DHT22;9572;52.378;13.404;2023-04-25T06:45:31;9.50;99.90
18880;DHT22;9572;52.378;13.404;2023-04-25T06:48:00;9.50;99.90
18880;DHT22;9572;52.378;13.404;2023-04-25T06:50:27;9.60;99.90
18880;DHT22;9572;52.378;13.404;2023-04-25T06:52:54;9.50;99.90
18880;DHT22;9572;52.378;13.404;2023-04-25T06:55:21;9.50;99.90
18880;DHT22;9572;52.378;13.404;2023-04-25T06:57:47;9.50;99.90
18880;DHT22;9572;52.378;13.404;2023-04-25T07:00:15;9.50;99.90
18880;DHT22;9572;52.378;13.404;2023-04-25T07:02:45;9.50;99.90
18880;DHT22;9572;52.378;13.404;2023-04-25T07:05:13;9.40;99.90
18880;DHT22;9572;52.378;13.404;2023-04-25T07:07:44;9.40;99.90
18880;DHT22;9572;52.378;13.404;2023-04-25T07:10:11;9.50;99.90
18880;DHT22;9572;52.378;13.404;2023-04-25T07:12:38;9.50;99.90
18880;DHT22;9572;52.378;13.404;2023-04-25T07:15:06;9.50;99.90
18880;DHT22;9572;52.378;13.404;2023-04-25T07:17:35;9.60;99.90
18880;DHT22;9572;52.378;13.404;2023-04-25T07:20:02;9.50;99.90
18880;DHT22;9572;52.378;13.404;2023-04-25T07:22:32;9.50;99.90
18880;DHT22;9572;52.378;13.404;2023-04-25T07:24:59;9.50;99.90
18880;DHT22;9572;52.378;13.404;2023-04-25T07:27:26;9.50;99.90
18880;DHT22;9572;52.378;13.404;2023-04-25T07:29:53;9.40;99.90
18880;DHT22;9572;52.378;13.404;2023-04-25T07:32:20;9.50;99.90
18880;DHT22;9572;52.378;13.404;2023-04-25T07:34:47;9.50;99.90
18880;DHT22;9572;52.378;13.404;2023-04-25T07:37:14;9.50;99.90
18880;DHT22;9572;52.378;13.404;2023-04-25T07:39:42;9.40;99.90
18880;DHT22;9572;52.378;13.404;2023-04-25T07:42:09;9.20;99.90
18880;DHT22;9572;52.378;13.404;2023-04-25T07:44:36;9.10;99.90
18880;DHT22;9572;52.378;13.404;2023-04-25T07:47:05;8.90;99.90
18880;DHT22;9572;52.378;13.404;2023-04-25T07:49:33;8.90;99.90
18880;DHT22;9572;52.378;13.404;2023-04-25T07:52:01;8.90;99.90
18880;DHT22;9572;52.378;13.404;2023-04-25T07:54:28;8.90;99.90
18880;DHT22;9572;52.378;13.404;2023-04-25T07:56:56;8.90;99.90
18880;DHT22;9572;52.378;13.404;2023-04-25T07:59:24;8.90;99.90
18880;DHT22;9572;52.378;13.404;2023-04-25T08:01:51;9.10;99.90
18880;DHT22;9572;52.378;13.404;2023-04-25T08:04:17;9.20;99.90
18880;DHT22;9572;52.378;13.404;2023-04-25T08:06:44;9.20;99.90
18880;DHT22;9572;52.378;13.404;2023-04-25T08:09:12;9.30;99.90
18880;DHT22;9572;52.378;13.404;2023-04-25T08:11:39;9.30;99.90
18880;DHT22;9572;52.378;13.404;2023-04-25T08:14:07;9.20;99.90
18880;DHT22;9572;52.378;13.404;2023-04-25T08:16:34;9.30;99.90
18880;DHT22;9572;52.378;13.404;2023-04-25T08:19:01;9.30;99.90
18880;DHT22;9572;52.378;13.404;2023-04-25T08:21:27;9.60;99.90
18880;DHT22;9572;52.378;13.404;2023-04-25T08:23:55;9.70;99.90
18880;DHT22;9572;52.378;13.404;2023-04-25T08:26:23;9.60;99.90
18880;DHT22;9572;52.378;13.404;2023-04-25T08:28:51;9.70;99.90
18880;DHT22;9572;52.378;13.404;2023-04-25T08:31:19;9.70;99.90
18880;DHT22;9572;52.378;13.404;2023-04-25T08:33:46;9.70;99.90
18880;DHT22;9572;52.378;13.404;2023-04-25T08:36:13;9.70;99.90
18880;DHT22;9572;52.378;13.404;2023-04-25T08:38:40;9.70;99.90
18880;DHT22;9572;52.378;13.404;2023-04-25T08:41:07;9.70;99.90
18880;DHT22;9572;52.378;13.404;2023-04-25T08:43:34;9.70;99.90
18880;DHT22;9572;52.378;13.404;2023-04-25T08:46:01;9.70;99.90
18880;DHT22;9572;52.378;13.404;2023-04-25T08:48:32;9.70;99.90
18880;DHT22;9572;52.378;13.404;2023-04-25T08:51:02;9.70;99.90
18880;DHT22;9572;52.378;13.404;2023-04-25T08:53:33;9.80;99.90
18880;DHT22;9572;52.378;13.404;2023-04-25T08:56:01;9.90;99.90
18880;DHT22;9572;52.378;13.404;2023-04-25T08:58:28;10.00;99.90
18880;DHT22;9572;52.378;13.404;2023-04-25T09:00:55;10.10;99.90
18880;DHT22;9572;52.378;13.404;2023-04-25T09:03:22;10.10;99.90
18880;DHT22;9572;52.378;13.404;2023-04-25T09:05:51;10.10;99.90
18880;DHT22;9572;52.378;13.404;2023-04-25T09:08:18;10.10;99.90
18880;DHT22;9572;52.378;13.404;2023-04-25T09:10:45;10.10;99.90
18880;DHT22;9572;52.378;13.404;2023-04-25T09:13:13;10.10;99.90
18880;DHT22;9572;52.378;13.404;2023-04-25T09:15:48;10.20;99.90
18880;DHT22;9572;52.378;13.404;2023-04-25T09:18:22;10.20;99.90
18880;DHT22;9572;52.378;13.404;2023-04-25T09:20:52;10.50;99.90
18880;DHT22;9572;52.378;13.404;2023-04-25T09:23:21;11.10;99.90
18880;DHT22;9572;52.378;13.404;2023-04-25T09:25:49;11.40;99.90
18880;DHT22;9572;52.378;13.404;2023-04-25T09:28:16;11.70;99.90
18880;DHT22;9572;52.378;13.404;2023-04-25T09:30:46;11.80;99.90
18880;DHT22;9572;52.378;13.404;2023-04-25T09:33:12;11.90;99.90
18880;DHT22;9572;52.378;13.404;2023-04-25T09:35:42;12.00;99.90
18880;DHT22;9572;52.378;13.404;2023-04-25T09:38:14;12.00;99.90
18880;DHT22;9572;52.378;13.404;2023-04-25T09:40:44;11.80;99.90
18880;DHT22;9572;52.378;13.404;2023-04-25T09:43:19;12.10;99.90
18880;DHT22;9572;52.378;13.404;2023-04-25T09:45:47;11.80;99.90
18880;DHT22;9572;52.378;13.404;2023-04-25T09:48:18;11.70;99.90
18880;DHT22;9572;52.378;13.404;2023-04-25T09:50:45;11.50;99.90
18880;DHT22;9572;52.378;13.404;2023-04-25T09:53:14;11.60;99.90
18880;DHT22;9572;52.378;13.404;2023-04-25T09:55:42;11.60;99.90
18880;DHT22;9572;52.378;13.404;2023-04-25T09:58:10;11.60;99.90
18880;DHT22;9572;52.378;13.404;2023-04-25T10:00:38;11.80;99.90
18880;DHT22;9572;52.378;13.404;2023-04-25T10:03:06;12.10;99.90
18880;DHT22;9572;52.378;13.404;2023-04-25T10:05:34;12.30;99.90
18880;DHT22;9572;52.378;13.404;2023-04-25T10:08:03;12.00;99.90
18880;DHT22;9572;52.378;13.404;2023-04-25T10:10:33;11.70;99.90
18880;DHT22;9572;52.378;13.404;2023-04-25T10:13:04;11.80;99.90
18880;DHT22;9572;52.378;13.404;2023-04-25T10:15:34;11.80;99.90
18880;DHT22;9572;52.378;13.404;2023-04-25T10:18:02;11.70;99.90
18880;DHT22;9572;52.378;13.404;2023-04-25T10:20:29;11.40;99.90
18880;DHT22;9572;52.378;13.404;2023-04-25T10:23:01;11.30;99.90
18880;DHT22;9572;52.378;13.404;2023-04-25T10:25:30;11.30;99.90
18880;DHT22;9572;52.378;13.404;2023-04-25T10:27:59;11.10;99.90
18880;DHT22;9572;52.378;13.404;2023-04-25T10:30:27;10.90;99.90
18880;DHT22;9572;52.378;13.404;2023-04-25T10:32:55;10.90;99.90
18880;DHT22;9572;52.378;13.404;2023-04-25T10:35:26;10.90;99.90
18880;DHT22;9572;52.378;13.404;2023-04-25T10:38:00;10.90;99.90
18880;DHT22;9572;52.378;13.404;2023-04-25T10:40:29;10.90;99.90
18880;DHT22;9572;52.378;13.404;2023-04-25T10:46:01;11.10;99.90
18880;DHT22;9572;52.378;13.404;2023-04-25T10:48:29;11.30;99.90
18880;DHT22;9572;52.378;13.404;2023-04-25T10:51:09;11.50;99.90
18880;DHT22;9572;52.378;13.404;2023-04-25T10:53:36;11.50;99.90
18880;DHT22;9572;52.378;13.404;2023-04-25T10:56:10;11.50;99.90
18880;DHT22;9572;52.378;13.404;2023-04-25T10:58:42;11.40;99.90
18880;DHT22;9572;52.378;13.404;2023-04-25T11:01:11;11.30;99.90
18880;DHT22;9572;52.378;13.404;2023-04-25T11:03:41;11.10;99.90
18880;DHT22;9572;52.378;13.404;2023-04-25T11:06:23;11.10;99.90
18880;DHT22;9572;52.378;13.404;2023-04-25T11:08:51;11.20;99.90
18880;DHT22;9572;52.378;13.404;2023-04-25T11:11:18;11.10;99.90
18880;DHT22;9572;52.378;13.404;2023-04-25T11:13:48;11.00;99.90
18880;DHT22;9572;52.378;13.404;2023-04-25T11:16:16;11.00;99.90
18880;DHT22;9572;52.378;13.404;2023-04-25T11:18:43;11.00;99.90
18880;DHT22;9572;52.378;13.404;2023-04-25T11:21:11;11.10;99.90
18880;DHT22;9572;52.378;13.404;2023-04-25T11:23:38;11.20;99.90
18880;DHT22;9572;52.378;13.404;2023-04-25T11:26:05;11.20;99.90
18880;DHT22;9572;52.378;13.404;2023-04-25T11:28:32;11.10;99.90
18880;DHT22;9572;52.378;13.404;2023-04-25T11:30:59;11.00;99.90
18880;DHT22;9572;52.378;13.404;2023-04-25T11:33:27;11.10;99.90
18880;DHT22;9572;52.378;13.404;2023-04-25T11:35:55;11.10;99.90
18880;DHT22;9572;52.378;13.404;2023-04-25T11:38:22;11.10;99.90
18880;DHT22;9572;52.378;13.404;2023-04-25T11:40:51;11.10;99.90
18880;DHT22;9572;52.378;13.404;2023-04-25T11:43:20;11.00;99.90
18880;DHT22;9572;52.378;13.404;2023-04-25T11:45:48;10.90;99.90
18880;DHT22;9572;52.378;13.404;2023-04-25T11:48:16;10.70;99.90
18880;DHT22;9572;52.378;13.404;2023-04-25T11:50:44;10.50;99.90
18880;DHT22;9572;52.378;13.404;2023-04-25T11:53:11;10.40;99.90
18880;DHT22;9572;52.378;13.404;2023-04-25T11:55:38;10.40;99.90
18880;DHT22;9572;52.378;13.404;2023-04-25T11:58:05;10.40;99.90
18880;DHT22;9572;52.378;13.404;2023-04-25T12:00:34;10.30;99.90
18880;DHT22;9572;52.378;13.404;2023-04-25T12:03:01;10.40;99.90
18880;DHT22;9572;52.378;13.404;2023-04-25T12:05:30;10.50;99.90
18880;DHT22;9572;52.378;13.404;2023-04-25T12:08:09;10.60;99.90
18880;DHT22;9572;52.378;13.404;2023-04-25T12:10:38;10.70;99.90
18880;DHT22;9572;52.378;13.404;2023-04-25T12:13:19;10.70;99.90
18880;DHT22;9572;52.378;13.404;2023-04-25T12:15:46;10.90;99.90
18880;DHT22;9572;52.378;13.404;2023-04-25T12:18:13;11.00;99.90
18880;DHT22;9572;52.378;13.404;2023-04-25T12:20:41;11.00;99.90
18880;DHT22;9572;52.378;13.404;2023-04-25T12:23:10;11.00;99.90
18880;DHT22;9572;52.378;13.404;2023-04-25T12:25:39;10.90;99.90
18880;DHT22;9572;52.378;13.404;2023-04-25T12:28:13;10.90;99.90
18880;DHT22;9572;52.378;13.404;2023-04-25T12:30:54;11.00;99.90
18880;DHT22;9572;52.378;13.404;2023-04-25T12:33:21;11.10;99.90
18880;DHT22;9572;52.378;13.404;2023-04-25T12:35:48;11.10;99.90
18880;DHT22;9572;52.378;13.404;2023-04-25T12:38:22;10.90;99.90
18880;DHT22;9572;52.378;13.404;2023-04-25T12:40:50;10.80;99.90
18880;DHT22;9572;52.378;13.404;2023-04-25T12:43:16;10.70;99.90
18880;DHT22;9572;52.378;13.404;2023-04-25T12:45:44;10.80;99.90
18880;DHT22;9572;52.378;13.404;2023-04-25T12:48:11;10.90;99.90
18880;DHT22;9572;52.378;13.404;2023-04-25T12:50:38;11.00;99.90
18880;DHT22;9572;52.378;13.404;2023-04-25T12:53:04;11.20;99.90
18880;DHT22;9572;52.378;13.404;2023-04-25T12:55:33;11.50;99.90
18880;DHT22;9572;52.378;13.404;2023-04-25T12:58:00;11.80;99.90
18880;DHT22;9572;52.378;13.404;2023-04-25T13:00:28;12.00;99.90
18880;DHT22;9572;52.378;13.404;2023-04-25T13:02:55;11.90;99.90
18880;DHT22;9572;52.378;13.404;2023-04-25T13:05:22;11.70;99.90
18880;DHT22;9572;52.378;13.404;2023-04-25T13:07:49;11.40;99.90
18880;DHT22;9572;52.378;13.404;2023-04-25T13:10:17;11.30;99.90
18880;DHT22;9572;52.378;13.404;2023-04-25T13:12:45;11.20;99.90
18880;DHT22;9572;52.378;13.404;2023-04-25T13:15:12;11.10;99.90
18880;DHT22;9572;52.378;13.404;2023-04-25T13:17:41;11.10;99.90
18880;DHT22;9572;52.378;13.404;2023-04-25T13:20:08;11.20;99.90
18880;DHT22;9572;52.378;13.404;2023-04-25T13:22:36;11.30;99.90
18880;DHT22;9572;52.378;13.404;2023-04-25T13:25:04;11.40;99.90
18880;DHT22;9572;52.378;13.404;2023-04-25T13:27:32;11.60;99.90
18880;DHT22;9572;52.378;13.404;2023-04-25T13:30:01;11.80;99.90
18880;DHT22;9572;52.378;13.404;2023-04-25T13:32:32;11.80;99.90
18880;DHT22;9572;52.378;13.404;2023-04-25T13:34:59;11.80;99.90
18880;DHT22;9572;52.378;13.404;2023-04-25T13:37:26;11.80;99.90
18880;DHT22;9572;52.378;13.404;2023-04-25T13:39:55;12.20;99.90
18880;DHT22;9572;52.378;13.404;2023-04-25T13:42:23;12.20;99.90
18880;DHT22;9572;52.378;13.404;2023-04-25T13:44:50;12.30;99.90
18880;DHT22;9572;52.378;13.404;2023-04-25T13:47:18;12.30;99.90
18880;DHT22;9572;52.378;13.404;2023-04-25T13:49:45;12.30;99.90
18880;DHT22;9572;52.378;13.404;2023-04-25T13:52:12;12.30;99.90
18880;DHT22;9572;52.378;13.404;2023-04-25T13:54:39;12.10;99.90
18880;DHT22;9572;52.378;13.404;2023-04-25T13:57:06;11.90;99.90
18880;DHT22;9572;52.378;13.404;2023-04-25T13:59:33;11.90;99.90
18880;DHT22;9572;52.378;13.404;2023-04-25T14:02:00;11.80;99.90
18880;DHT22;9572;52.378;13.404;2023-04-25T14:04:28;11.70;99.90
18880;DHT22;9572;52.378;13.404;2023-04-25T14:06:55;11.60;99.90
18880;DHT22;9572;52.378;13.404;2023-04-25T14:09:22;11.50;99.90
18880;DHT22;9572;52.378;13.404;2023-04-25T14:11:51;11.50;99.90
18880;DHT22;9572;52.378;13.404;2023-04-25T14:14:18;11.40;99.90
18880;DHT22;9572;52.378;13.404;2023-04-25T14:16:45;11.30;99.90
18880;DHT22;9572;52.378;13.404;2023-04-25T14:19:13;11.00;99.90
18880;DHT22;9572;52.378;13.404;2023-04-25T14:21:42;10.80;99.90
18880;DHT22;9572;52.378;13.404;2023-04-25T14:24:09;10.70;99.90
18880;DHT22;9572;52.378;13.404;2023-04-25T14:26:37;10.60;99.90
18880;DHT22;9572;52.378;13.404;2023-04-25T14:29:05;10.60;99.90
18880;DHT22;9572;52.378;13.404;2023-04-25T14:31:32;10.60;99.90
18880;DHT22;9572;52.378;13.404;2023-04-25T14:33:59;10.50;99.90
18880;DHT22;9572;52.378;13.404;2023-04-25T14:36:26;10.40;99.90
18880;DHT22;9572;52.378;13.404;2023-04-25T14:38:55;10.40;99.90
18880;DHT22;9572;52.378;13.404;2023-04-25T14:41:22;10.20;99.90
18880;DHT22;9572;52.378;13.404;2023-04-25T14:43:50;10.10;99.90
18880;DHT22;9572;52.378;13.404;2023-04-25T14:46:18;10.10;99.90
18880;DHT22;9572;52.378;13.404;2023-04-25T14:48:45;10.10;99.90
18880;DHT22;9572;52.378;13.404;2023-04-25T14:51:12;10.00;99.90
18880;DHT22;9572;52.378;13.404;2023-04-25T14:53:39;10.10;99.90
18880;DHT22;9572;52.378;13.404;2023-04-25T14:56:08;10.10;99.90
18880;DHT22;9572;52.378;13.404;2023-04-25T14:58:35;10.10;99.90
18880;DHT22;9572;52.378;13.404;2023-04-25T15:01:03;10.20;99.90
18880;DHT22;9572;52.378;13.404;2023-04-25T15:03:30;10.40;99.90
18880;DHT22;9572;52.378;13.404;2023-04-25T15:05:57;10.60;99.90
18880;DHT22;9572;52.378;13.404;2023-04-25T15:08:24;10.70;99.90
18880;DHT22;9572;52.378;13.404;2023-04-25T15:10:51;10.60;99.90
18880;DHT22;9572;52.378;13.404;2023-04-25T15:13:20;10.40;99.90
18880;DHT22;9572;52.378;13.404;2023-04-25T15:15:47;10.30;99.90
18880;DHT22;9572;52.378;13.404;2023-04-25T15:18:17;10.30;99.90
18880;DHT22;9572;52.378;13.404;2023-04-25T15:20:47;10.40;99.90
18880;DHT22;9572;52.378;13.404;2023-04-25T15:23:14;10.30;99.90
18880;DHT22;9572;52.378;13.404;2023-04-25T15:25:41;10.30;99.90
18880;DHT22;9572;52.378;13.404;2023-04-25T15:28:08;10.40;99.90
18880;DHT22;9572;52.378;13.404;2023-04-25T15:30:36;10.50;99.90
18880;DHT22;9572;52.378;13.404;2023-04-25T15:33:03;10.50;99.90
18880;DHT22;9572;52.378;13.404;2023-04-25T15:35:30;10.60;99.90
18880;DHT22;9572;52.378;13.404;2023-04-25T15:37:57;10.60;99.90
18880;DHT22;9572;52.378;13.404;2023-04-25T15:40:24;10.70;99.90
18880;DHT22;9572;52.378;13.404;2023-04-25T15:42:51;10.70;99.90
18880;DHT22;9572;52.378;13.404;2023-04-25T15:45:20;10.70;99.90
18880;DHT22;9572;52.378;13.404;2023-04-25T15:47:49;10.70;99.90